sensor_id;sensor_type;location;lat;lon;timestamp;P1;durP1;ratioP1;P2;durP2;ratioP2
40595;SDS011;26304;48.794;9.820;2022-08-01T00:00:11;2.85;;;2.17;;
40595;SDS011;26304;48.794;9.820;2022-08-01T00:05:54;2.10;;;2.00;;
40595;SDS011;26304;48.794;9.820;2022-08-01T00:11:38;2.72;;;2.08;;
40595;SDS011;26304;48.794;9.820;2022-08-01T00:17:20;2.20;;;2.00;;
40595;SDS011;26304;48.794;9.820;2022-08-01T00:23:03;2.03;;;1.80;;
40595;SDS011;26304;48.794;9.820;2022-08-01T00:28:47;3.60;;;2.35;;
40595;SDS011;26304;48.794;9.820;2022-08-01T00:34:29;3.30;;;2.22;;
40595;SDS011;26304;48.794;9.820;2022-08-01T00:40:12;2.40;;;2.20;;
40595;SDS011;26304;48.794;9.820;2022-08-01T00:45:56;2.60;;;2.40;;
40595;SDS011;26304;48.794;9.820;2022-08-01T00:51:38;2.20;;;2.00;;
40595;SDS011;26304;48.794;9.820;2022-08-01T00:57:21;2.70;;;2.50;;
40595;SDS011;26304;48.794;9.820;2022-08-01T01:03:05;2.35;;;2.25;;
40595;SDS011;26304;48.794;9.820;2022-08-01T01:08:50;2.60;;;2.40;;
40595;SDS011;26304;48.794;9.820;2022-08-01T01:14:41;2.30;;;2.10;;
40595;SDS011;26304;48.794;9.820;2022-08-01T01:20:30;2.60;;;2.40;;
40595;SDS011;26304;48.794;9.820;2022-08-01T01:26:28;2.65;;;2.42;;
40595;SDS011;26304;48.794;9.820;2022-08-01T01:32:22;2.35;;;2.25;;
40595;SDS011;26304;48.794;9.820;2022-08-01T01:38:15;2.53;;;2.33;;
40595;SDS011;26304;48.794;9.820;2022-08-01T01:44:00;2.47;;;2.20;;
40595;SDS011;26304;48.794;9.820;2022-08-01T01:49:45;3.53;;;2.10;;
40595;SDS011;26304;48.794;9.820;2022-08-01T01:55:31;2.58;;;2.47;;
40595;SDS011;26304;48.794;9.820;2022-08-01T02:01:16;2.33;;;2.13;;
40595;SDS011;26304;48.794;9.820;2022-08-01T02:07:01;2.10;;;2.00;;
40595;SDS011;26304;48.794;9.820;2022-08-01T02:12:45;3.03;;;2.67;;
40595;SDS011;26304;48.794;9.820;2022-08-01T02:18:30;2.38;;;2.20;;
40595;SDS011;26304;48.794;9.820;2022-08-01T02:24:16;2.38;;;2.05;;
40595;SDS011;26304;48.794;9.820;2022-08-01T02:30:07;3.05;;;2.40;;
40595;SDS011;26304;48.794;9.820;2022-08-01T02:35:54;2.30;;;2.20;;
40595;SDS011;26304;48.794;9.820;2022-08-01T02:41:41;2.22;;;2.08;;
40595;SDS011;26304;48.794;9.820;2022-08-01T02:47:27;2.33;;;2.22;;
40595;SDS011;26304;48.794;9.820;2022-08-01T02:53:11;2.53;;;2.33;;
40595;SDS011;26304;48.794;9.820;2022-08-01T02:58:56;2.28;;;2.17;;
40595;SDS011;26304;48.794;9.820;2022-08-01T03:04:39;2.33;;;2.22;;
40595;SDS011;26304;48.794;9.820;2022-08-01T03:10:23;2.53;;;2.42;;
40595;SDS011;26304;48.794;9.820;2022-08-01T03:16:10;3.88;;;2.75;;
40595;SDS011;26304;48.794;9.820;2022-08-01T03:21:54;2.72;;;2.53;;
40595;SDS011;26304;48.794;9.820;2022-08-01T03:27:39;2.70;;;2.50;;
40595;SDS011;26304;48.794;9.820;2022-08-01T03:33:26;2.90;;;2.67;;
40595;SDS011;26304;48.794;9.820;2022-08-01T03:39:09;2.83;;;2.60;;
40595;SDS011;26304;48.794;9.820;2022-08-01T03:44:57;2.45;;;2.30;;
40595;SDS011;26304;48.794;9.820;2022-08-01T03:50:43;2.60;;;2.40;;
40595;SDS011;26304;48.794;9.820;2022-08-01T03:56:29;2.80;;;2.60;;
40595;SDS011;26304;48.794;9.820;2022-08-01T04:02:13;3.10;;;2.50;;
40595;SDS011;26304;48.794;9.820;2022-08-01T04:07:58;3.63;;;2.97;;
40595;SDS011;26304;48.794;9.820;2022-08-01T04:13:42;2.58;;;2.40;;
40595;SDS011;26304;48.794;9.820;2022-08-01T04:19:25;3.20;;;3.00;;
40595;SDS011;26304;48.794;9.820;2022-08-01T04:25:11;3.10;;;2.85;;
40595;SDS011;26304;48.794;9.820;2022-08-01T04:30:56;3.25;;;3.05;;
40595;SDS011;26304;48.794;9.820;2022-08-01T04:36:40;3.33;;;3.00;;
40595;SDS011;26304;48.794;9.820;2022-08-01T04:42:25;2.90;;;2.70;;
40595;SDS011;26304;48.794;9.820;2022-08-01T04:48:08;3.42;;;3.17;;
40595;SDS011;26304;48.794;9.820;2022-08-01T04:53:52;3.00;;;2.63;;
40595;SDS011;26304;48.794;9.820;2022-08-01T04:59:36;3.13;;;2.90;;
40595;SDS011;26304;48.794;9.820;2022-08-01T05:05:23;2.75;;;2.55;;
40595;SDS011;26304;48.794;9.820;2022-08-01T05:11:07;3.35;;;3.13;;
40595;SDS011;26304;48.794;9.820;2022-08-01T05:16:50;3.10;;;2.80;;
40595;SDS011;26304;48.794;9.820;2022-08-01T05:22:33;3.20;;;3.00;;
40595;SDS011;26304;48.794;9.820;2022-08-01T05:28:16;3.13;;;2.85;;
40595;SDS011;26304;48.794;9.820;2022-08-01T05:33:59;3.55;;;3.08;;
40595;SDS011;26304;48.794;9.820;2022-08-01T05:39:42;3.58;;;2.95;;
40595;SDS011;26304;48.794;9.820;2022-08-01T05:45:24;3.45;;;3.25;;
40595;SDS011;26304;48.794;9.820;2022-08-01T05:51:08;4.22;;;3.10;;
40595;SDS011;26304;48.794;9.820;2022-08-01T05:56:51;3.22;;;2.97;;
40595;SDS011;26304;48.794;9.820;2022-08-01T06:02:33;3.00;;;2.80;;
40595;SDS011;26304;48.794;9.820;2022-08-01T06:08:17;3.05;;;2.85;;
40595;SDS011;26304;48.794;9.820;2022-08-01T06:13:59;3.42;;;3.20;;
40595;SDS011;26304;48.794;9.820;2022-08-01T06:19:42;4.40;;;3.53;;
40595;SDS011;26304;48.794;9.820;2022-08-01T06:25:26;3.70;;;3.40;;
40595;SDS011;26304;48.794;9.820;2022-08-01T06:31:08;3.25;;;2.95;;
40595;SDS011;26304;48.794;9.820;2022-08-01T06:36:53;3.40;;;2.63;;
40595;SDS011;26304;48.794;9.820;2022-08-01T06:42:37;2.80;;;2.42;;
40595;SDS011;26304;48.794;9.820;2022-08-01T06:48:20;2.97;;;2.78;;
40595;SDS011;26304;48.794;9.820;2022-08-01T06:54:03;3.22;;;2.60;;
40595;SDS011;26304;48.794;9.820;2022-08-01T06:59:47;2.40;;;2.30;;
40595;SDS011;26304;48.794;9.820;2022-08-01T07:05:30;3.20;;;2.90;;
40595;SDS011;26304;48.794;9.820;2022-08-01T07:11:13;3.53;;;2.30;;
40595;SDS011;26304;48.794;9.820;2022-08-01T07:16:56;2.80;;;2.58;;
40595;SDS011;26304;48.794;9.820;2022-08-01T07:22:39;3.05;;;2.35;;
40595;SDS011;26304;48.794;9.820;2022-08-01T07:28:21;2.92;;;2.70;;
40595;SDS011;26304;48.794;9.820;2022-08-01T07:34:05;4.10;;;2.80;;
40595;SDS011;26304;48.794;9.820;2022-08-01T07:39:48;2.65;;;2.38;;
40595;SDS011;26304;48.794;9.820;2022-08-01T07:45:30;2.63;;;2.42;;
40595;SDS011;26304;48.794;9.820;2022-08-01T07:51:14;3.25;;;2.95;;
40595;SDS011;26304;48.794;9.820;2022-08-01T07:56:56;3.03;;;2.83;;
40595;SDS011;26304;48.794;9.820;2022-08-01T08:02:39;4.32;;;2.72;;
40595;SDS011;26304;48.794;9.820;2022-08-01T08:08:22;2.47;;;2.28;;
40595;SDS011;26304;48.794;9.820;2022-08-01T08:14:05;3.50;;;2.50;;
40595;SDS011;26304;48.794;9.820;2022-08-01T08:19:47;2.50;;;2.30;;
40595;SDS011;26304;48.794;9.820;2022-08-01T08:25:31;2.88;;;2.58;;
40595;SDS011;26304;48.794;9.820;2022-08-01T08:31:14;3.33;;;2.25;;
40595;SDS011;26304;48.794;9.820;2022-08-01T08:36:57;2.80;;;2.50;;
40595;SDS011;26304;48.794;9.820;2022-08-01T08:42:41;2.80;;;2.33;;
40595;SDS011;26304;48.794;9.820;2022-08-01T08:48:24;3.40;;;2.78;;
40595;SDS011;26304;48.794;9.820;2022-08-01T08:54:08;5.32;;;3.03;;
40595;SDS011;26304;48.794;9.820;2022-08-01T08:59:55;4.65;;;3.08;;
40595;SDS011;26304;48.794;9.820;2022-08-01T09:05:38;8.60;;;3.17;;
40595;SDS011;26304;48.794;9.820;2022-08-01T09:11:21;6.50;;;2.65;;
40595;SDS011;26304;48.794;9.820;2022-08-01T09:17:06;4.53;;;2.80;;
40595;SDS011;26304;48.794;9.820;2022-08-01T09:22:51;3.40;;;2.58;;
40595;SDS011;26304;48.794;9.820;2022-08-01T09:28:34;5.93;;;2.75;;
40595;SDS011;26304;48.794;9.820;2022-08-01T09:34:24;6.43;;;2.63;;
40595;SDS011;26304;48.794;9.820;2022-08-01T09:40:08;3.83;;;2.53;;
40595;SDS011;26304;48.794;9.820;2022-08-01T09:45:51;8.52;;;2.90;;
40595;SDS011;26304;48.794;9.820;2022-08-01T09:51:36;3.50;;;2.63;;
40595;SDS011;26304;48.794;9.820;2022-08-01T09:57:19;2.83;;;2.50;;
40595;SDS011;26304;48.794;9.820;2022-08-01T10:03:18;3.13;;;2.38;;
40595;SDS011;26304;48.794;9.820;2022-08-01T10:09:03;3.33;;;2.20;;
40595;SDS011;26304;48.794;9.820;2022-08-01T10:14:47;2.63;;;2.42;;
40595;SDS011;26304;48.794;9.820;2022-08-01T10:20:31;5.00;;;2.78;;
40595;SDS011;26304;48.794;9.820;2022-08-01T10:26:16;2.88;;;2.63;;
40595;SDS011;26304;48.794;9.820;2022-08-01T10:31:59;4.38;;;2.50;;
40595;SDS011;26304;48.794;9.820;2022-08-01T10:37:41;2.90;;;2.60;;
40595;SDS011;26304;48.794;9.820;2022-08-01T10:43:26;3.97;;;2.58;;
40595;SDS011;26304;48.794;9.820;2022-08-01T10:49:09;3.35;;;2.20;;
40595;SDS011;26304;48.794;9.820;2022-08-01T10:55:01;3.13;;;2.42;;
40595;SDS011;26304;48.794;9.820;2022-08-01T11:00:45;2.97;;;2.58;;
40595;SDS011;26304;48.794;9.820;2022-08-01T11:06:38;2.65;;;2.22;;
40595;SDS011;26304;48.794;9.820;2022-08-01T11:12:23;2.72;;;2.42;;
40595;SDS011;26304;48.794;9.820;2022-08-01T11:18:31;2.50;;;2.30;;
40595;SDS011;26304;48.794;9.820;2022-08-01T11:24:13;3.25;;;2.70;;
40595;SDS011;26304;48.794;9.820;2022-08-01T11:36:17;5.38;;;2.95;;
40595;SDS011;26304;48.794;9.820;2022-08-01T11:48:01;4.05;;;2.88;;
40595;SDS011;26304;48.794;9.820;2022-08-01T11:54:01;3.58;;;2.30;;
40595;SDS011;26304;48.794;9.820;2022-08-01T11:59:45;3.85;;;2.20;;
40595;SDS011;26304;48.794;9.820;2022-08-01T12:05:30;3.85;;;2.42;;
40595;SDS011;26304;48.794;9.820;2022-08-01T12:11:15;2.78;;;2.45;;
40595;SDS011;26304;48.794;9.820;2022-08-01T12:16:58;2.63;;;2.25;;
40595;SDS011;26304;48.794;9.820;2022-08-01T12:22:40;3.88;;;2.47;;
40595;SDS011;26304;48.794;9.820;2022-08-01T12:28:26;2.65;;;2.00;;
40595;SDS011;26304;48.794;9.820;2022-08-01T12:34:26;2.55;;;2.35;;
40595;SDS011;26304;48.794;9.820;2022-08-01T12:40:11;2.83;;;2.20;;
40595;SDS011;26304;48.794;9.820;2022-08-01T12:45:58;2.92;;;1.95;;
40595;SDS011;26304;48.794;9.820;2022-08-01T12:51:42;2.42;;;2.20;;
40595;SDS011;26304;48.794;9.820;2022-08-01T12:57:25;2.78;;;2.10;;
40595;SDS011;26304;48.794;9.820;2022-08-01T13:03:09;5.15;;;2.53;;
40595;SDS011;26304;48.794;9.820;2022-08-01T13:08:55;2.33;;;1.88;;
40595;SDS011;26304;48.794;9.820;2022-08-01T13:14:46;2.65;;;2.13;;
40595;SDS011;26304;48.794;9.820;2022-08-01T13:20:31;2.55;;;2.35;;
40595;SDS011;26304;48.794;9.820;2022-08-01T13:26:17;3.05;;;2.15;;
40595;SDS011;26304;48.794;9.820;2022-08-01T13:31:59;4.85;;;2.38;;
40595;SDS011;26304;48.794;9.820;2022-08-01T13:37:44;6.38;;;2.45;;
40595;SDS011;26304;48.794;9.820;2022-08-01T13:43:26;5.45;;;2.45;;
40595;SDS011;26304;48.794;9.820;2022-08-01T13:49:09;4.70;;;2.75;;
40595;SDS011;26304;48.794;9.820;2022-08-01T13:54:54;3.55;;;2.50;;
40595;SDS011;26304;48.794;9.820;2022-08-01T14:00:36;3.75;;;2.50;;
40595;SDS011;26304;48.794;9.820;2022-08-01T14:06:19;6.00;;;2.55;;
40595;SDS011;26304;48.794;9.820;2022-08-01T14:12:04;4.05;;;2.72;;
40595;SDS011;26304;48.794;9.820;2022-08-01T14:17:47;4.20;;;2.85;;
40595;SDS011;26304;48.794;9.820;2022-08-01T14:23:30;4.38;;;2.42;;
40595;SDS011;26304;48.794;9.820;2022-08-01T14:29:14;2.60;;;2.40;;
40595;SDS011;26304;48.794;9.820;2022-08-01T14:34:56;4.35;;;2.40;;
40595;SDS011;26304;48.794;9.820;2022-08-01T14:40:38;5.90;;;2.42;;
40595;SDS011;26304;48.794;9.820;2022-08-01T14:46:22;4.20;;;2.28;;
40595;SDS011;26304;48.794;9.820;2022-08-01T14:52:05;3.72;;;2.60;;
40595;SDS011;26304;48.794;9.820;2022-08-01T14:57:47;4.15;;;2.58;;
40595;SDS011;26304;48.794;9.820;2022-08-01T15:03:31;3.03;;;2.70;;
40595;SDS011;26304;48.794;9.820;2022-08-01T15:09:14;3.42;;;2.30;;
40595;SDS011;26304;48.794;9.820;2022-08-01T15:14:56;6.03;;;2.35;;
40595;SDS011;26304;48.794;9.820;2022-08-01T15:20:40;4.20;;;2.60;;
40595;SDS011;26304;48.794;9.820;2022-08-01T15:26:23;5.40;;;3.17;;
40595;SDS011;26304;48.794;9.820;2022-08-01T15:32:05;9.57;;;4.53;;
40595;SDS011;26304;48.794;9.820;2022-08-01T15:37:50;12.02;;;4.50;;
40595;SDS011;26304;48.794;9.820;2022-08-01T15:43:33;10.48;;;4.35;;
40595;SDS011;26304;48.794;9.820;2022-08-01T15:49:15;8.40;;;4.45;;
40595;SDS011;26304;48.794;9.820;2022-08-01T15:54:59;11.00;;;3.97;;
40595;SDS011;26304;48.794;9.820;2022-08-01T16:00:42;9.05;;;4.38;;
40595;SDS011;26304;48.794;9.820;2022-08-01T16:06:24;8.40;;;3.70;;
40595;SDS011;26304;48.794;9.820;2022-08-01T16:12:08;6.88;;;3.50;;
40595;SDS011;26304;48.794;9.820;2022-08-01T16:17:51;5.55;;;3.20;;
40595;SDS011;26304;48.794;9.820;2022-08-01T16:23:33;6.55;;;3.42;;
40595;SDS011;26304;48.794;9.820;2022-08-01T16:29:17;9.30;;;4.13;;
40595;SDS011;26304;48.794;9.820;2022-08-01T16:34:59;6.18;;;3.63;;
40595;SDS011;26304;48.794;9.820;2022-08-01T16:40:42;7.10;;;3.60;;
40595;SDS011;26304;48.794;9.820;2022-08-01T16:46:28;6.55;;;3.50;;
40595;SDS011;26304;48.794;9.820;2022-08-01T16:52:10;6.60;;;3.00;;
40595;SDS011;26304;48.794;9.820;2022-08-01T16:57:53;1.65;;;1.50;;
40595;SDS011;26304;48.794;9.820;2022-08-01T17:03:38;1.52;;;1.42;;
40595;SDS011;26304;48.794;9.820;2022-08-01T17:09:20;1.20;;;1.20;;
40595;SDS011;26304;48.794;9.820;2022-08-01T17:15:03;1.88;;;1.40;;
40595;SDS011;26304;48.794;9.820;2022-08-01T17:20:48;1.20;;;1.10;;
40595;SDS011;26304;48.794;9.820;2022-08-01T17:26:31;1.25;;;1.15;;
40595;SDS011;26304;48.794;9.820;2022-08-01T17:32:13;1.35;;;1.25;;
40595;SDS011;26304;48.794;9.820;2022-08-01T17:37:57;1.13;;;1.02;;
40595;SDS011;26304;48.794;9.820;2022-08-01T17:43:39;1.23;;;1.10;;
40595;SDS011;26304;48.794;9.820;2022-08-01T17:49:22;1.17;;;1.00;;
40595;SDS011;26304;48.794;9.820;2022-08-01T17:55:07;1.50;;;1.00;;
40595;SDS011;26304;48.794;9.820;2022-08-01T18:00:50;1.30;;;1.20;;
40595;SDS011;26304;48.794;9.820;2022-08-01T18:06:32;1.35;;;1.00;;
40595;SDS011;26304;48.794;9.820;2022-08-01T18:12:18;1.10;;;1.00;;
40595;SDS011;26304;48.794;9.820;2022-08-01T18:18:00;1.67;;;1.58;;
40595;SDS011;26304;48.794;9.820;2022-08-01T18:23:43;2.38;;;1.40;;
40595;SDS011;26304;48.794;9.820;2022-08-01T18:29:27;5.10;;;2.40;;
40595;SDS011;26304;48.794;9.820;2022-08-01T18:35:10;2.88;;;2.00;;
40595;SDS011;26304;48.794;9.820;2022-08-01T18:40:52;1.38;;;1.23;;
40595;SDS011;26304;48.794;9.820;2022-08-01T18:46:37;1.35;;;1.25;;
40595;SDS011;26304;48.794;9.820;2022-08-01T18:52:20;2.38;;;1.60;;
40595;SDS011;26304;48.794;9.820;2022-08-01T18:58:02;2.35;;;1.38;;
40595;SDS011;26304;48.794;9.820;2022-08-01T19:03:46;1.27;;;1.17;;
40595;SDS011;26304;48.794;9.820;2022-08-01T19:09:29;1.15;;;1.10;;
40595;SDS011;26304;48.794;9.820;2022-08-01T19:15:11;1.50;;;1.05;;
40595;SDS011;26304;48.794;9.820;2022-08-01T19:20:55;1.42;;;1.23;;
40595;SDS011;26304;48.794;9.820;2022-08-01T19:26:38;1.50;;;1.30;;
40595;SDS011;26304;48.794;9.820;2022-08-01T19:32:21;1.33;;;1.17;;
40595;SDS011;26304;48.794;9.820;2022-08-01T19:38:06;3.25;;;2.95;;
40595;SDS011;26304;48.794;9.820;2022-08-01T19:43:49;2.70;;;2.50;;
40595;SDS011;26304;48.794;9.820;2022-08-01T19:49:32;3.70;;;2.10;;
40595;SDS011;26304;48.794;9.820;2022-08-01T19:55:16;2.17;;;1.63;;
40595;SDS011;26304;48.794;9.820;2022-08-01T20:00:59;2.22;;;1.38;;
40595;SDS011;26304;48.794;9.820;2022-08-01T20:06:42;1.40;;;1.30;;
40595;SDS011;26304;48.794;9.820;2022-08-01T20:12:26;2.10;;;1.20;;
40595;SDS011;26304;48.794;9.820;2022-08-01T20:18:09;1.10;;;1.05;;
40595;SDS011;26304;48.794;9.820;2022-08-01T20:23:51;1.20;;;1.10;;
40595;SDS011;26304;48.794;9.820;2022-08-01T20:29:39;1.85;;;1.30;;
40595;SDS011;26304;48.794;9.820;2022-08-01T20:35:22;1.40;;;1.30;;
40595;SDS011;26304;48.794;9.820;2022-08-01T20:41:06;2.13;;;1.60;;
40595;SDS011;26304;48.794;9.820;2022-08-01T20:46:50;2.28;;;2.10;;
40595;SDS011;26304;48.794;9.820;2022-08-01T20:52:34;2.55;;;2.10;;
40595;SDS011;26304;48.794;9.820;2022-08-01T20:58:18;3.28;;;2.28;;
40595;SDS011;26304;48.794;9.820;2022-08-01T21:04:12;2.25;;;2.08;;
40595;SDS011;26304;48.794;9.820;2022-08-01T21:10:04;2.92;;;1.92;;
40595;SDS011;26304;48.794;9.820;2022-08-01T21:15:48;2.15;;;2.00;;
40595;SDS011;26304;48.794;9.820;2022-08-01T21:21:35;2.33;;;2.13;;
40595;SDS011;26304;48.794;9.820;2022-08-01T21:27:22;2.75;;;1.70;;
40595;SDS011;26304;48.794;9.820;2022-08-01T21:33:08;1.52;;;1.42;;
40595;SDS011;26304;48.794;9.820;2022-08-01T21:38:53;2.03;;;1.38;;
40595;SDS011;26304;48.794;9.820;2022-08-01T21:44:38;1.40;;;1.30;;
40595;SDS011;26304;48.794;9.820;2022-08-01T21:50:23;1.13;;;1.02;;
40595;SDS011;26304;48.794;9.820;2022-08-01T21:56:07;1.27;;;1.00;;
40595;SDS011;26304;48.794;9.820;2022-08-01T22:01:59;1.38;;;0.90;;
40595;SDS011;26304;48.794;9.820;2022-08-01T22:07:44;0.77;;;0.77;;
40595;SDS011;26304;48.794;9.820;2022-08-01T22:13:29;0.60;;;0.60;;
40595;SDS011;26304;48.794;9.820;2022-08-01T22:19:12;1.13;;;0.90;;
40595;SDS011;26304;48.794;9.820;2022-08-01T22:24:56;1.05;;;0.85;;
40595;SDS011;26304;48.794;9.820;2022-08-01T22:30:41;0.77;;;0.77;;
40595;SDS011;26304;48.794;9.820;2022-08-01T22:36:24;2.35;;;0.98;;
40595;SDS011;26304;48.794;9.820;2022-08-01T22:42:06;1.75;;;0.98;;
40595;SDS011;26304;48.794;9.820;2022-08-01T22:47:57;1.98;;;1.55;;
40595;SDS011;26304;48.794;9.820;2022-08-01T22:53:49;2.15;;;1.10;;
40595;SDS011;26304;48.794;9.820;2022-08-01T22:59:41;1.20;;;1.08;;
40595;SDS011;26304;48.794;9.820;2022-08-01T23:05:30;1.23;;;1.02;;
40595;SDS011;26304;48.794;9.820;2022-08-01T23:11:17;1.17;;;0.98;;
40595;SDS011;26304;48.794;9.820;2022-08-01T23:17:01;0.90;;;0.90;;
40595;SDS011;26304;48.794;9.820;2022-08-01T23:22:45;1.98;;;0.88;;
40595;SDS011;26304;48.794;9.820;2022-08-01T23:28:30;1.27;;;0.90;;
40595;SDS011;26304;48.794;9.820;2022-08-01T23:34:13;1.02;;;0.93;;
40595;SDS011;26304;48.794;9.820;2022-08-01T23:39:57;0.90;;;0.82;;
40595;SDS011;26304;48.794;9.820;2022-08-01T23:45:39;1.33;;;0.88;;
40595;SDS011;26304;48.794;9.820;2022-08-01T23:51:22;0.77;;;0.77;;
40595;SDS011;26304;48.794;9.820;2022-08-01T23:57:05;0.73;;;0.73;;
